Time;durP1;ratioP1;P1;durP2;ratioP2;P2;SDS_P1;SDS_P2;PMS_P1;PMS_P2;Temp;Humidity;BMP_temperature;BMP_pressure;BME280_temperature;BME280_humidity;BME280_pressure;Samples;Min_cycle;Max_cycle;Signal;HPM_P1;HPM_P2
2021/03/13 00:00:33;;;;;;;21.40;3.67;;;9.40;99.90;;;;;;5054043;28;20288;-80
2021/03/13 00:03:01;;;;;;;18.60;3.47;;;9.40;99.90;;;;;;5034162;28;20676;-80
2021/03/13 00:05:29;;;;;;;20.63;3.40;;;9.40;99.90;;;;;;5047668;28;20203;-80
2021/03/13 00:07:55;;;;;;;18.17;3.30;;;9.40;99.90;;;;;;5040024;28;20711;-80
2021/03/13 00:10:23;;;;;;;16.57;3.37;;;9.40;99.90;;;;;;5053900;28;20230;-80
2021/03/13 00:12:49;;;;;;;16.43;3.57;;;9.40;99.90;;;;;;5054501;28;20194;-79
2021/03/13 00:15:18;;;;;;;20.90;3.50;;;9.30;99.90;;;;;;5037655;28;20235;-80
2021/03/13 00:17:46;;;;;;;16.97;3.23;;;9.30;99.90;;;;;;5051017;28;20253;-80
2021/03/13 00:20:16;;;;;;;19.60;3.20;;;9.30;99.90;;;;;;5053181;28;20263;-80
2021/03/13 00:22:43;;;;;;;17.57;2.93;;;9.40;99.90;;;;;;5052993;28;20203;-79
2021/03/13 00:25:11;;;;;;;20.60;3.83;;;9.40;99.90;;;;;;5044593;28;20237;-80
2021/03/13 00:27:46;;;;;;;18.60;3.60;;;9.50;99.90;;;;;;5040536;28;20239;-80
2021/03/13 00:30:15;;;;;;;18.33;3.97;;;9.50;99.90;;;;;;5044557;28;20195;-80
2021/03/13 00:32:44;;;;;;;24.40;3.93;;;9.50;99.90;;;;;;5054028;28;20243;-80
2021/03/13 00:35:11;;;;;;;21.07;3.87;;;9.50;99.90;;;;;;5052932;28;20202;-80
2021/03/13 00:37:38;;;;;;;20.17;3.80;;;9.50;99.90;;;;;;5035728;28;20281;-80
2021/03/13 00:40:06;;;;;;;20.80;3.80;;;9.50;99.90;;;;;;5035094;28;20230;-80
2021/03/13 00:42:33;;;;;;;24.37;3.50;;;9.50;99.90;;;;;;5051436;28;20732;-79
2021/03/13 00:44:59;;;;;;;22.47;4.17;;;9.60;99.90;;;;;;5053806;28;20233;-80
2021/03/13 00:47:26;;;;;;;19.43;3.50;;;9.60;99.90;;;;;;5053201;28;20286;-80
2021/03/13 00:49:54;;;;;;;20.33;4.13;;;9.70;99.90;;;;;;5050603;28;20726;-80
2021/03/13 00:52:20;;;;;;;21.90;3.97;;;9.70;99.90;;;;;;5039778;28;20242;-80
2021/03/13 00:54:47;;;;;;;20.43;3.83;;;9.80;99.90;;;;;;5052836;28;20203;-80
2021/03/13 00:57:13;;;;;;;24.43;3.63;;;9.80;99.90;;;;;;5048787;28;20310;-79
2021/03/13 00:59:40;;;;;;;15.77;3.00;;;9.80;99.90;;;;;;5033157;28;20241;-80
2021/03/13 01:02:06;;;;;;;16.70;3.20;;;9.80;99.90;;;;;;5033607;28;20654;-80
2021/03/13 01:04:32;;;;;;;21.43;3.53;;;9.80;99.90;;;;;;5045657;28;20685;-80
2021/03/13 01:07:00;;;;;;;18.73;3.50;;;9.80;99.90;;;;;;5051259;28;20542;-80
2021/03/13 01:09:26;;;;;;;18.60;3.50;;;9.90;99.90;;;;;;5035411;28;20678;-79
2021/03/13 01:11:54;;;;;;;20.70;3.77;;;9.80;99.90;;;;;;5033268;28;20625;-80
2021/03/13 01:14:21;;;;;;;20.23;3.27;;;9.70;99.90;;;;;;5032865;28;20204;-80
2021/03/13 01:16:48;;;;;;;17.33;2.80;;;9.70;99.90;;;;;;5032894;28;20255;-80
2021/03/13 01:19:15;;;;;;;18.07;3.10;;;9.70;99.90;;;;;;5032932;28;20242;-80
2021/03/13 01:21:42;;;;;;;16.03;3.17;;;9.70;99.90;;;;;;5032501;28;20268;-80
2021/03/13 01:24:09;;;;;;;21.53;3.47;;;9.50;99.90;;;;;;5032545;28;20733;-79
2021/03/13 01:26:36;;;;;;;18.73;3.87;;;9.40;99.90;;;;;;5032925;28;20234;-80
2021/03/13 01:29:02;;;;;;;24.23;4.03;;;9.40;99.90;;;;;;5032790;28;20710;-80
2021/03/13 01:31:29;;;;;;;16.97;3.37;;;9.30;99.90;;;;;;5032676;28;20235;-80
2021/03/13 01:33:55;;;;;;;21.83;3.77;;;9.30;99.90;;;;;;5035664;28;20592;-80
2021/03/13 01:36:22;;;;;;;18.20;3.13;;;9.20;99.90;;;;;;5052540;28;20277;-79
2021/03/13 01:38:48;;;;;;;20.10;3.43;;;9.20;99.90;;;;;;5051838;28;20277;-79
2021/03/13 01:41:16;;;;;;;18.20;3.67;;;9.10;99.90;;;;;;5050364;28;20235;-80
2021/03/13 01:43:42;;;;;;;20.47;3.40;;;9.10;99.90;;;;;;5031882;28;20638;-80
2021/03/13 01:46:09;;;;;;;17.67;3.40;;;9.10;99.90;;;;;;5040089;28;20225;-80
2021/03/13 01:48:42;;;;;;;20.70;3.30;;;9.20;99.90;;;;;;5051176;28;20644;-80
2021/03/13 01:51:09;;;;;;;23.63;3.87;;;9.20;99.90;;;;;;5051905;28;20260;-80
2021/03/13 01:53:35;;;;;;;17.00;2.97;;;9.20;99.90;;;;;;5051947;28;20207;-80
2021/03/13 01:56:02;;;;;;;18.53;3.03;;;9.30;99.90;;;;;;5051659;28;20233;-80
2021/03/13 01:58:29;;;;;;;19.50;3.40;;;9.30;99.90;;;;;;5051289;28;20226;-81
2021/03/13 02:00:56;;;;;;;15.57;3.27;;;9.40;99.90;;;;;;5052148;28;20227;-80
2021/03/13 02:03:23;;;;;;;18.70;3.30;;;9.40;99.90;;;;;;5052402;28;20229;-80
2021/03/13 02:05:52;;;;;;;15.57;3.10;;;9.30;99.90;;;;;;5051754;28;20246;-80
2021/03/13 02:08:27;;;;;;;13.07;2.83;;;9.30;99.90;;;;;;5052297;28;20705;-80
2021/03/13 02:11:02;;;;;;;17.93;3.17;;;9.30;99.90;;;;;;5051456;28;20199;-80
2021/03/13 02:13:33;;;;;;;19.03;3.97;;;9.20;99.90;;;;;;5038043;28;20289;-80
2021/03/13 02:16:13;;;;;;;18.70;3.67;;;9.30;99.90;;;;;;5040483;28;20229;-80
2021/03/13 02:18:49;;;;;;;24.53;4.90;;;9.30;99.90;;;;;;5033256;28;20249;-80
2021/03/13 02:21:22;;;;;;;24.03;4.40;;;9.40;99.90;;;;;;5031838;28;20235;-80
2021/03/13 02:24:18;;;;;;;22.43;4.33;;;9.40;99.90;;;;;;5040094;28;20200;-80
2021/03/13 02:27:07;;;;;;;16.93;3.57;;;9.40;99.90;;;;;;5048141;28;20690;-80
2021/03/13 02:29:47;;;;;;;20.63;3.57;;;9.50;99.90;;;;;;5036357;28;20242;-80
2021/03/13 02:32:21;;;;;;;18.17;3.23;;;9.50;99.90;;;;;;5051876;28;20210;-80
2021/03/13 02:34:51;;;;;;;17.10;3.30;;;9.50;99.90;;;;;;5050848;28;20206;-81
2021/03/13 02:37:22;;;;;;;17.93;2.93;;;9.60;99.90;;;;;;5051396;28;20322;-80
2021/03/13 02:39:53;;;;;;;17.13;3.17;;;9.60;99.90;;;;;;5035339;28;20241;-80
2021/03/13 02:42:21;;;;;;;14.30;2.23;;;9.60;99.90;;;;;;5051262;28;20633;-80
2021/03/13 02:44:49;;;;;;;16.37;2.50;;;9.60;99.90;;;;;;5051389;28;20286;-81
2021/03/13 02:47:18;;;;;;;12.73;2.40;;;9.60;99.90;;;;;;5051705;28;20233;-80
2021/03/13 02:49:48;;;;;;;12.57;2.53;;;9.60;99.90;;;;;;5051325;28;20239;-81
2021/03/13 02:52:17;;;;;;;11.47;2.47;;;9.60;99.90;;;;;;5051518;28;20659;-80
2021/03/13 02:54:47;;;;;;;15.53;3.20;;;9.70;99.90;;;;;;5052028;28;20242;-80
2021/03/13 02:57:15;;;;;;;15.90;3.30;;;9.70;99.90;;;;;;5051167;28;20226;-80
2021/03/13 02:59:43;;;;;;;14.03;2.97;;;9.70;99.90;;;;;;5050291;28;20230;-81
2021/03/13 03:02:13;;;;;;;16.57;3.87;;;9.70;99.90;;;;;;5051275;28;20236;-80
2021/03/13 03:04:41;;;;;;;19.57;4.07;;;9.70;99.90;;;;;;5051179;28;20235;-80
2021/03/13 03:07:09;;;;;;;20.67;4.40;;;9.70;99.90;;;;;;5051440;28;20602;-80
2021/03/13 03:09:36;;;;;;;16.93;3.57;;;9.60;99.90;;;;;;5051810;28;20231;-80
2021/03/13 03:12:04;;;;;;;19.63;3.70;;;9.50;99.90;;;;;;5051363;28;20637;-80
2021/03/13 03:14:31;;;;;;;23.20;4.27;;;9.50;99.90;;;;;;5051007;28;20236;-80
2021/03/13 03:17:03;;;;;;;17.67;3.70;;;9.50;99.90;;;;;;5048162;28;20261;-80
2021/03/13 03:19:32;;;;;;;20.97;4.10;;;9.50;99.90;;;;;;5050715;28;20966;-80
2021/03/13 03:22:00;;;;;;;24.20;4.27;;;9.60;99.90;;;;;;5048262;28;20296;-79
2021/03/13 03:24:28;;;;;;;19.23;3.90;;;9.60;99.90;;;;;;5053472;28;20238;-80
2021/03/13 03:26:55;;;;;;;23.83;3.93;;;9.60;99.90;;;;;;5038166;28;20231;-80
2021/03/13 03:29:22;;;;;;;21.80;3.77;;;9.60;99.90;;;;;;5044582;28;20287;-80
2021/03/13 03:31:49;;;;;;;23.20;4.47;;;9.70;99.90;;;;;;5035284;28;20228;-80
2021/03/13 03:34:16;;;;;;;21.53;4.07;;;9.70;99.90;;;;;;5043055;28;20235;-80
2021/03/13 03:36:44;;;;;;;19.37;3.43;;;9.60;99.90;;;;;;5054584;28;20261;-80
2021/03/13 03:39:11;;;;;;;20.00;3.33;;;9.50;99.90;;;;;;5054439;28;20239;-79
2021/03/13 03:41:41;;;;;;;21.13;3.93;;;9.40;99.90;;;;;;5051617;28;20622;-79
2021/03/13 03:44:13;;;;;;;21.27;3.43;;;9.30;99.90;;;;;;5043419;28;20227;-80
2021/03/13 03:46:41;;;;;;;18.37;3.23;;;9.30;99.90;;;;;;5034901;28;20319;-80
2021/03/13 03:49:09;;;;;;;19.93;3.47;;;9.30;99.90;;;;;;5034156;28;20262;-79
2021/03/13 03:51:37;;;;;;;17.47;3.33;;;9.30;99.90;;;;;;5034414;28;20690;-80
2021/03/13 03:54:10;;;;;;;18.60;3.70;;;9.30;99.90;;;;;;5034381;28;20245;-79
2021/03/13 03:56:38;;;;;;;14.70;3.10;;;9.30;99.90;;;;;;5034363;28;22094;-79
2021/03/13 03:59:05;;;;;;;21.70;3.97;;;9.30;99.90;;;;;;5049904;28;20230;-80
2021/03/13 04:01:32;;;;;;;19.77;3.90;;;9.30;99.90;;;;;;5053837;28;20254;-80
2021/03/13 04:04:00;;;;;;;19.47;3.60;;;9.30;99.90;;;;;;5054254;28;20269;-80
2021/03/13 04:06:28;;;;;;;22.90;4.37;;;9.30;99.90;;;;;;5053950;28;20200;-80
2021/03/13 04:08:58;;;;;;;23.37;3.97;;;9.30;99.90;;;;;;5054469;28;20600;-79
2021/03/13 04:11:27;;;;;;;17.63;3.63;;;9.30;99.90;;;;;;5053593;28;20243;-80
2021/03/13 04:13:56;;;;;;;24.50;4.07;;;9.30;99.90;;;;;;5053871;28;20246;-80
2021/03/13 04:16:24;;;;;;;21.37;3.27;;;9.40;99.90;;;;;;5035913;28;20677;-79
2021/03/13 04:18:50;;;;;;;19.30;3.50;;;9.40;99.90;;;;;;5037717;28;20232;-79
2021/03/13 04:21:18;;;;;;;24.10;4.00;;;9.30;99.90;;;;;;5034226;28;20241;-79
2021/03/13 04:23:47;;;;;;;20.83;3.27;;;9.30;99.90;;;;;;5050558;28;20240;-80
2021/03/13 04:26:16;;;;;;;18.00;3.67;;;9.30;99.90;;;;;;5053640;28;20254;-80
2021/03/13 04:28:44;;;;;;;22.93;3.67;;;9.30;99.90;;;;;;5052800;28;20572;-78
2021/03/13 04:31:11;;;;;;;12.00;2.30;;;9.20;99.90;;;;;;5049167;28;20235;-79
2021/03/13 04:33:40;;;;;;;9.93;1.60;;;8.90;99.90;;;;;;5053143;28;20213;-79
2021/03/13 04:36:07;;;;;;;8.67;1.33;;;8.80;99.90;;;;;;5052952;28;20229;-79
2021/03/13 04:38:34;;;;;;;8.60;1.50;;;8.70;99.90;;;;;;5052453;28;20246;-79
2021/03/13 04:41:01;;;;;;;6.80;1.17;;;8.50;99.90;;;;;;5053685;28;20233;-78
2021/03/13 04:43:28;;;;;;;7.30;0.90;;;8.40;99.90;;;;;;5052997;28;20285;-79
2021/03/13 04:45:59;;;;;;;6.87;1.10;;;8.30;99.90;;;;;;5053287;28;20234;-78
2021/03/13 04:48:27;;;;;;;5.67;0.90;;;8.20;99.90;;;;;;5052840;28;20210;-78
2021/03/13 04:50:57;;;;;;;4.63;0.77;;;8.10;99.90;;;;;;5052988;28;20227;-79
2021/03/13 04:53:23;;;;;;;3.30;0.80;;;8.10;99.90;;;;;;5052531;28;20204;-79
2021/03/13 04:55:50;;;;;;;2.63;0.83;;;8.10;99.90;;;;;;5053020;28;20231;-79
2021/03/13 04:58:16;;;;;;;4.50;0.90;;;8.00;99.90;;;;;;5038110;28;20271;-79
2021/03/13 05:00:44;;;;;;;6.97;1.40;;;8.10;99.90;;;;;;5032506;28;20243;-79
2021/03/13 05:03:11;;;;;;;3.63;1.00;;;8.10;99.90;;;;;;5033441;28;20199;-79
2021/03/13 05:05:37;;;;;;;3.87;1.00;;;8.10;99.90;;;;;;5033162;28;20201;-79
2021/03/13 05:10:45;;;;;;;4.67;1.17;;;8.00;99.90;;;;;;5051427;28;20241;-79
2021/03/13 05:13:12;;;;;;;3.93;1.00;;;8.00;99.90;;;;;;5052804;28;20245;-79
2021/03/13 05:15:38;;;;;;;2.77;0.70;;;8.00;99.90;;;;;;5052320;28;20347;-79
2021/03/13 05:18:05;;;;;;;4.63;1.03;;;8.00;99.90;;;;;;5051077;28;20259;-79
2021/03/13 05:20:32;;;;;;;6.27;1.83;;;8.00;99.90;;;;;;5052543;28;20273;-80
2021/03/13 05:22:59;;;;;;;4.67;1.27;;;8.00;99.90;;;;;;5052559;28;20239;-79
2021/03/13 05:25:25;;;;;;;3.57;1.20;;;8.00;99.90;;;;;;5052715;28;20236;-80
2021/03/13 05:27:51;;;;;;;5.37;1.97;;;8.00;99.90;;;;;;5051991;28;20234;-79
2021/03/13 05:30:19;;;;;;;7.23;1.50;;;8.00;99.90;;;;;;5051102;28;20260;-79
2021/03/13 05:32:46;;;;;;;6.93;1.53;;;8.00;99.90;;;;;;5052117;28;20635;-80
2021/03/13 05:35:13;;;;;;;6.77;2.07;;;8.00;99.90;;;;;;5052564;28;20239;-79
2021/03/13 05:37:41;;;;;;;6.73;1.50;;;8.00;99.90;;;;;;5042323;28;20244;-79
2021/03/13 05:40:09;;;;;;;7.33;1.93;;;8.10;99.90;;;;;;5038955;28;20232;-79
2021/03/13 05:42:38;;;;;;;11.03;1.87;;;8.10;99.90;;;;;;5051913;28;20286;-79
2021/03/13 05:45:06;;;;;;;9.50;1.90;;;8.10;99.90;;;;;;5051885;28;20245;-79
2021/03/13 05:47:34;;;;;;;8.10;1.60;;;8.10;99.90;;;;;;5051459;28;20261;-79
2021/03/13 05:50:03;;;;;;;10.43;1.80;;;8.10;99.90;;;;;;5052016;28;20244;-80
2021/03/13 05:52:33;;;;;;;6.23;1.40;;;8.10;99.90;;;;;;5051734;28;20232;-79
2021/03/13 05:55:01;;;;;;;9.13;1.70;;;8.10;99.90;;;;;;5051894;28;20205;-79
2021/03/13 05:57:27;;;;;;;8.43;1.90;;;8.10;99.90;;;;;;5051702;28;20863;-80
2021/03/13 05:59:56;;;;;;;7.80;1.53;;;8.10;99.90;;;;;;5051792;28;20701;-79
2021/03/13 06:02:23;;;;;;;8.13;1.80;;;8.20;99.90;;;;;;5052468;28;20206;-79
2021/03/13 06:04:50;;;;;;;7.97;1.43;;;8.10;99.90;;;;;;5034549;28;20665;-79
2021/03/13 06:07:20;;;;;;;6.77;1.90;;;8.10;99.90;;;;;;5052221;28;20713;-79
2021/03/13 06:09:46;;;;;;;9.80;1.70;;;8.10;99.90;;;;;;5051298;28;20234;-79
2021/03/13 06:12:13;;;;;;;9.17;1.90;;;8.10;99.90;;;;;;5051670;28;20233;-79
2021/03/13 06:14:41;;;;;;;11.63;2.20;;;8.10;99.90;;;;;;5052075;28;20234;-79
2021/03/13 06:17:07;;;;;;;12.93;1.77;;;8.10;99.90;;;;;;5051266;28;20222;-79
2021/03/13 06:19:48;;;;;;;8.50;2.03;;;8.10;99.90;;;;;;5051698;28;20235;-79
2021/03/13 06:22:33;;;;;;;10.50;2.27;;;8.10;99.90;;;;;;5045604;28;20244;-80
2021/03/13 06:25:24;;;;;;;10.73;1.90;;;8.00;99.90;;;;;;5051651;28;20288;-79
2021/03/13 06:28:05;;;;;;;8.53;2.23;;;8.00;99.90;;;;;;5034419;28;20205;-79
2021/03/13 06:30:34;;;;;;;15.50;2.50;;;7.90;99.90;;;;;;5051729;28;20610;-80
2021/03/13 06:33:01;;;;;;;12.60;2.17;;;7.90;99.90;;;;;;5050951;28;20210;-79
2021/03/13 06:35:29;;;;;;;19.27;2.83;;;7.90;99.90;;;;;;5051908;28;20207;-79
2021/03/13 06:37:58;;;;;;;11.97;2.77;;;7.90;99.90;;;;;;5048215;28;20257;-79
2021/03/13 06:40:30;;;;;;;12.70;3.00;;;7.90;99.90;;;;;;5051885;28;20286;-80
2021/03/13 06:43:00;;;;;;;14.03;2.50;;;7.90;99.90;;;;;;5051562;28;20236;-79
2021/03/13 06:45:26;;;;;;;15.20;3.10;;;7.90;99.90;;;;;;5051689;28;20230;-80
2021/03/13 06:47:53;;;;;;;12.57;2.93;;;7.90;99.90;;;;;;5042113;28;20287;-79
2021/03/13 06:50:22;;;;;;;18.07;2.93;;;7.80;99.90;;;;;;5031401;28;20238;-79
2021/03/13 06:52:50;;;;;;;13.17;2.80;;;7.90;99.90;;;;;;5044019;28;20199;-80
2021/03/13 06:55:19;;;;;;;10.93;2.80;;;7.80;99.90;;;;;;5050249;28;20238;-79
2021/03/13 06:57:48;;;;;;;16.10;3.00;;;7.70;99.90;;;;;;5052808;28;20258;-79
2021/03/13 07:00:33;;;;;;;12.93;3.07;;;7.70;99.90;;;;;;5055604;28;20209;-79
2021/03/13 07:03:07;;;;;;;10.53;2.87;;;7.70;99.90;;;;;;5055152;28;20210;-78
2021/03/13 07:05:34;;;;;;;14.83;3.03;;;7.70;99.90;;;;;;5054892;28;20234;-80
2021/03/13 07:08:25;;;;;;;15.27;3.30;;;7.70;99.90;;;;;;5054865;28;20201;-79
2021/03/13 07:10:52;;;;;;;18.80;3.60;;;7.80;99.90;;;;;;5052927;28;20210;-80
2021/03/13 07:13:32;;;;;;;12.20;3.03;;;7.90;99.90;;;;;;5052565;28;20658;-79
2021/03/13 07:16:25;;;;;;;16.77;3.37;;;7.90;99.90;;;;;;5055085;28;20290;-79
2021/03/13 07:18:52;;;;;;;17.50;3.53;;;8.10;99.90;;;;;;5030956;28;20228;-80
2021/03/13 07:21:21;;;;;;;14.07;2.93;;;8.20;99.90;;;;;;5044340;28;20274;-79
2021/03/13 07:23:53;;;;;;;15.87;3.57;;;8.40;99.90;;;;;;5055164;28;20245;-79
2021/03/13 07:26:23;;;;;;;15.17;3.37;;;8.70;99.90;;;;;;5053796;28;20214;-79
2021/03/13 07:28:50;;;;;;;17.93;3.50;;;9.20;99.90;;;;;;5041082;28;20230;-80
2021/03/13 07:31:19;;;;;;;21.37;3.80;;;9.30;99.90;;;;;;5046461;28;20714;-80
2021/03/13 07:33:48;;;;;;;19.73;3.23;;;9.10;99.90;;;;;;5055062;28;20206;-79
2021/03/13 07:36:18;;;;;;;17.13;3.97;;;8.80;99.90;;;;;;5053329;28;20199;-79
2021/03/13 07:38:47;;;;;;;14.40;3.77;;;8.70;99.90;;;;;;5054688;28;20264;-80
2021/03/13 07:41:18;;;;;;;16.60;3.30;;;8.70;99.90;;;;;;5052488;28;20235;-80
2021/03/13 07:43:46;;;;;;;16.03;3.60;;;8.70;99.90;;;;;;5051954;28;20205;-79
2021/03/13 07:46:13;;;;;;;15.87;3.40;;;8.70;99.90;;;;;;5054880;28;20894;-79
2021/03/13 07:48:41;;;;;;;19.57;4.87;;;8.70;99.90;;;;;;5053860;28;20317;-79
2021/03/13 07:51:09;;;;;;;17.70;3.30;;;8.70;99.90;;;;;;5037268;28;20238;-79
2021/03/13 07:53:39;;;;;;;18.33;3.47;;;8.70;99.90;;;;;;5054201;28;20237;-79
2021/03/13 07:59:57;;;;;;;21.90;3.70;;;8.70;99.90;;;;;;4992006;28;20212;-80
2021/03/13 08:02:54;;;;;;;;;;;;;;;;;;;;;
2021/03/13 08:05:23;;;;;;;17.93;3.83;;;8.70;99.90;;;;;;4927852;29;20709;-80
2021/03/13 08:08:08;;;;;;;16.83;3.40;;;8.70;99.90;;;;;;4931133;29;21368;-80
2021/03/13 08:10:55;;;;;;;18.67;3.97;;;8.70;99.90;;;;;;4933758;29;20215;-80
2021/03/13 08:17:08;;;;;;;19.63;4.37;;;8.70;99.90;;;;;;4933014;29;20205;-80
2021/03/13 08:20:13;;;;;;;15.90;3.13;;;8.70;99.90;;;;;;4934704;29;20682;-80
2021/03/13 08:22:39;;;;;;;24.13;4.80;;;8.70;99.90;;;;;;4933952;29;20201;-81
2021/03/13 08:25:41;;;;;;;20.00;3.70;;;8.80;99.90;;;;;;4934575;29;20657;-80
2021/03/13 08:29:06;;;;;;;;;;;;;;;;;;;;;
2021/03/13 08:35:17;;;;;;;;;;;;;;;;;;;;;
2021/03/13 08:40:57;;;;;;;17.10;4.20;;;9.70;99.90;;;;;;4965903;28;20250;-81
2021/03/13 08:44:18;;;;;;;;;;;;;;;;;;;;;
2021/03/13 08:47:08;;;;;;;23.10;4.30;;;9.90;99.90;;;;;;4953200;29;20207;-82
2021/03/13 08:49:57;;;;;;;21.07;4.10;;;9.80;99.90;;;;;;4959957;28;20213;-83
2021/03/13 08:52:41;;;;;;;22.83;4.73;;;9.60;99.90;;;;;;4966556;28;20203;-83
2021/03/13 08:58:56;;;;;;;28.37;4.90;;;9.60;99.90;;;;;;4913018;29;20687;-82
2021/03/13 09:01:25;;;;;;;23.77;4.73;;;9.60;99.90;;;;;;4858108;29;20272;-82
2021/03/13 09:03:53;;;;;;;21.57;4.17;;;9.60;99.90;;;;;;4858496;29;20743;-83
2021/03/13 09:06:21;;;;;;;20.53;4.30;;;9.60;99.90;;;;;;4848186;29;20222;-81
2021/03/13 09:08:48;;;;;;;21.53;4.13;;;9.70;99.90;;;;;;4848487;29;20719;-80
2021/03/13 09:11:27;;;;;;;16.33;4.30;;;9.80;99.90;;;;;;4851048;29;20215;-82
2021/03/13 09:14:00;;;;;;;18.07;3.97;;;9.90;99.90;;;;;;4903208;29;20983;-83
2021/03/13 09:16:28;;;;;;;24.90;4.30;;;10.00;99.90;;;;;;4903342;29;20857;-83
2021/03/13 09:18:55;;;;;;;19.80;4.50;;;10.40;99.90;;;;;;4900271;29;20320;-83
2021/03/13 09:21:39;;;;;;;17.80;4.03;;;12.30;99.90;;;;;;4902179;29;20236;-83
2021/03/13 09:24:07;;;;;;;20.20;3.87;;;13.10;99.90;;;;;;4909161;29;20240;-84
2021/03/13 09:26:33;;;;;;;16.07;4.17;;;13.40;99.90;;;;;;4912208;29;20240;-83
2021/03/13 09:29:03;;;;;;;18.77;3.90;;;13.80;99.90;;;;;;4937904;28;20214;-83
2021/03/13 09:31:31;;;;;;;18.20;4.07;;;13.80;99.90;;;;;;4987274;28;20200;-82
2021/03/13 09:34:15;;;;;;;14.17;3.97;;;12.70;99.90;;;;;;5046059;28;20223;-83
2021/03/13 09:36:42;;;;;;;17.73;3.93;;;11.90;99.90;;;;;;5035760;28;20292;-83
2021/03/13 09:39:09;;;;;;;16.83;3.90;;;12.30;99.90;;;;;;5036917;28;20220;-83
2021/03/13 09:41:35;;;;;;;14.83;3.00;;;12.60;99.90;;;;;;5047294;28;20199;-83
2021/03/13 09:44:01;;;;;;;13.57;3.40;;;12.60;99.90;;;;;;5053234;28;20665;-83
2021/03/13 09:46:31;;;;;;;16.90;4.30;;;12.20;99.90;;;;;;5044023;28;20196;-83
2021/03/13 09:48:58;;;;;;;10.77;3.10;;;11.90;99.90;;;;;;5046200;28;20204;-83
2021/03/13 09:51:26;;;;;;;12.97;2.67;;;12.90;99.90;;;;;;5045461;28;20235;-83
2021/03/13 09:53:52;;;;;;;12.10;3.10;;;13.00;99.90;;;;;;5051769;28;20299;-84
2021/03/13 09:56:29;;;;;;;9.37;2.67;;;13.70;99.90;;;;;;5037634;28;20204;-83
2021/03/13 09:58:57;;;;;;;5.13;1.63;;;13.40;99.90;;;;;;5043489;28;20253;-84
2021/03/13 10:01:24;;;;;;;10.00;2.47;;;13.10;99.90;;;;;;5045283;28;20196;-84
2021/03/13 10:03:52;;;;;;;9.50;2.40;;;12.90;99.90;;;;;;5066403;28;20245;-84
2021/03/13 10:06:19;;;;;;;7.77;2.03;;;13.30;99.90;;;;;;5049241;28;20196;-84
2021/03/13 10:08:45;;;;;;;8.17;2.10;;;13.40;99.90;;;;;;5041390;28;20576;-84
2021/03/13 10:11:12;;;;;;;9.87;1.90;;;13.00;99.90;;;;;;5044386;28;20197;-83
2021/03/13 10:13:38;;;;;;;7.43;1.87;;;12.70;99.90;;;;;;5040051;28;20238;-83
2021/03/13 10:16:05;;;;;;;10.70;2.23;;;12.20;99.90;;;;;;5056090;28;20195;-83
2021/03/13 10:18:38;;;;;;;8.80;1.80;;;12.00;99.90;;;;;;5039008;28;20294;-84
2021/03/13 10:21:07;;;;;;;9.43;2.13;;;12.20;99.90;;;;;;5048625;28;20302;-83
2021/03/13 10:23:35;;;;;;;7.60;1.90;;;13.60;99.90;;;;;;5050640;28;20203;-83
2021/03/13 10:26:05;;;;;;;9.07;2.03;;;13.90;99.90;;;;;;5049585;28;20192;-83
2021/03/13 10:28:36;;;;;;;10.37;2.17;;;13.20;99.90;;;;;;5044765;28;20327;-81
2021/03/13 10:31:07;;;;;;;10.33;2.00;;;12.80;99.90;;;;;;5050411;28;20231;-79
2021/03/13 10:33:35;;;;;;;9.03;2.30;;;12.60;99.90;;;;;;5053430;28;20561;-80
2021/03/13 10:36:02;;;;;;;7.27;1.60;;;12.60;99.90;;;;;;5048453;28;20679;-80
2021/03/13 10:38:29;;;;;;;9.17;2.10;;;12.50;99.90;;;;;;5042566;28;20259;-81
2021/03/13 10:40:57;;;;;;;7.97;1.87;;;12.30;99.90;;;;;;5049743;28;20258;-80
2021/03/13 10:43:32;;;;;;;9.03;1.93;;;12.20;99.90;;;;;;5035316;28;20205;-81
2021/03/13 10:46:14;;;;;;;7.13;1.40;;;12.70;99.90;;;;;;5036566;28;20203;-81
2021/03/13 10:49:05;;;;;;;5.63;1.60;;;13.20;99.90;;;;;;5040772;28;20193;-81
2021/03/13 10:51:35;;;;;;;7.20;1.80;;;14.00;99.90;;;;;;5048510;28;20235;-81
2021/03/13 10:54:03;;;;;;;6.73;1.40;;;13.40;99.90;;;;;;5042731;28;20663;-81
2021/03/13 10:56:40;;;;;;;6.30;1.40;;;12.70;99.90;;;;;;5053772;28;20238;-81
2021/03/13 10:59:07;;;;;;;9.60;1.50;;;12.50;99.90;;;;;;5051060;28;20822;-81
2021/03/13 11:01:34;;;;;;;8.23;1.80;;;12.20;99.90;;;;;;5042553;28;20240;-81
2021/03/13 11:04:00;;;;;;;5.20;1.33;;;11.90;99.90;;;;;;5053785;28;20274;-80
2021/03/13 11:06:28;;;;;;;6.10;1.40;;;11.90;99.90;;;;;;5045426;28;20631;-79
2021/03/13 11:08:57;;;;;;;7.03;2.00;;;12.20;99.90;;;;;;5047149;28;20704;-84
2021/03/13 11:11:24;;;;;;;9.57;2.00;;;12.20;99.90;;;;;;5037218;28;20246;-80
2021/03/13 11:13:51;;;;;;;7.90;2.00;;;12.60;99.90;;;;;;5054655;28;20227;-83
2021/03/13 11:16:18;;;;;;;8.23;1.87;;;14.10;99.90;;;;;;5037464;28;20232;-81
2021/03/13 11:18:45;;;;;;;9.00;2.20;;;15.50;99.90;;;;;;5036231;28;20228;-81
2021/03/13 11:21:13;;;;;;;8.90;2.17;;;15.50;99.90;;;;;;5050513;28;20754;-81
2021/03/13 11:23:39;;;;;;;6.50;1.73;;;15.40;99.90;;;;;;5035989;28;20205;-81
2021/03/13 11:26:06;;;;;;;9.40;1.83;;;16.10;99.90;;;;;;5046087;28;20223;-81
2021/03/13 11:28:33;;;;;;;9.03;2.20;;;15.40;99.90;;;;;;5051945;28;20231;-81
2021/03/13 11:31:01;;;;;;;7.33;1.70;;;14.80;99.90;;;;;;5048425;28;20204;-81
2021/03/13 11:33:28;;;;;;;5.60;1.57;;;13.90;99.90;;;;;;5042943;28;20251;-81
2021/03/13 11:36:06;;;;;;;10.40;2.03;;;13.30;99.90;;;;;;5054118;28;20240;-81
2021/03/13 11:38:33;;;;;;;6.57;1.57;;;13.90;99.90;;;;;;5038063;28;20223;-81
2021/03/13 11:41:02;;;;;;;12.37;2.70;;;13.30;99.90;;;;;;5049855;28;20223;-80
2021/03/13 11:43:28;;;;;;;6.87;2.10;;;13.80;99.90;;;;;;5050696;28;20678;-80
2021/03/13 11:45:55;;;;;;;6.83;2.30;;;13.70;99.90;;;;;;5050579;28;20875;-80
2021/03/13 11:48:22;;;;;;;6.63;2.00;;;14.30;99.90;;;;;;5054432;28;20192;-81
2021/03/13 11:50:49;;;;;;;4.83;1.70;;;15.50;99.90;;;;;;5045538;28;20204;-80
2021/03/13 11:53:15;;;;;;;4.47;1.60;;;15.70;99.90;;;;;;5034434;28;20228;-80
2021/03/13 11:55:42;;;;;;;6.87;1.50;;;15.70;99.90;;;;;;5037487;28;20716;-80
2021/03/13 11:58:08;;;;;;;6.57;1.33;;;15.10;99.90;;;;;;5040792;28;20627;-80
2021/03/13 12:00:35;;;;;;;6.37;1.50;;;14.00;99.90;;;;;;5054034;28;20231;-80
2021/03/13 12:03:02;;;;;;;3.07;1.10;;;14.60;99.90;;;;;;5046657;28;20230;-80
2021/03/13 12:05:29;;;;;;;6.10;1.17;;;15.70;99.90;;;;;;5053437;28;20239;-79
2021/03/13 12:07:55;;;;;;;4.90;1.00;;;16.30;99.90;;;;;;5053859;28;20679;-80
2021/03/13 12:10:22;;;;;;;4.17;1.23;;;16.30;99.90;;;;;;5050669;28;20228;-81
2021/03/13 12:12:48;;;;;;;4.13;0.90;;;16.20;99.90;;;;;;5045132;28;20253;-80
2021/03/13 12:15:15;;;;;;;6.70;1.50;;;16.70;99.90;;;;;;5051010;28;20227;-80
2021/03/13 12:17:42;;;;;;;3.53;1.53;;;17.10;99.90;;;;;;5044134;28;20247;-81
2021/03/13 12:20:11;;;;;;;4.50;1.13;;;15.80;99.90;;;;;;5048373;28;20251;-80
2021/03/13 12:22:37;;;;;;;4.07;1.27;;;15.90;99.90;;;;;;5057327;28;20235;-80
2021/03/13 12:25:05;;;;;;;5.37;1.00;;;17.30;99.90;;;;;;5042919;28;20334;-79
2021/03/13 12:27:32;;;;;;;5.20;1.00;;;16.50;99.90;;;;;;5050835;28;20228;-79
2021/03/13 12:29:58;;;;;;;6.30;1.30;;;16.40;99.90;;;;;;5047677;28;20891;-79
2021/03/13 12:32:24;;;;;;;3.50;1.00;;;16.90;99.90;;;;;;5052605;28;20231;-79
2021/03/13 12:34:51;;;;;;;3.47;0.98;;;17.80;99.90;;;;;;5053891;28;20283;-79
2021/03/13 12:37:19;;;;;;;3.47;1.00;;;17.70;99.90;;;;;;5053335;28;20200;-79
2021/03/13 12:39:45;;;;;;;3.80;1.07;;;16.10;99.90;;;;;;5053121;28;20219;-78
2021/03/13 12:42:12;;;;;;;4.23;1.00;;;14.60;99.90;;;;;;5057850;28;20903;-79
2021/03/13 12:44:39;;;;;;;2.70;0.73;;;12.10;99.90;;;;;;5064993;28;20271;-78
2021/03/13 12:47:05;;;;;;;2.43;0.80;;;9.90;99.90;;;;;;5053782;28;20231;-79
2021/03/13 12:49:32;;;;;;;3.73;0.83;;;8.60;99.90;;;;;;5051724;28;20230;-79
2021/03/13 12:51:58;;;;;;;3.67;0.93;;;8.30;99.90;;;;;;5048770;28;20232;-79
2021/03/13 12:54:25;;;;;;;2.63;0.70;;;8.00;99.90;;;;;;5048410;28;20284;-78
2021/03/13 12:56:52;;;;;;;3.90;0.90;;;8.00;99.90;;;;;;5041353;28;20226;-79
2021/03/13 12:59:18;;;;;;;4.00;0.80;;;7.80;99.90;;;;;;5040863;28;20247;-79
2021/03/13 13:01:45;;;;;;;5.47;1.17;;;8.10;99.90;;;;;;5046838;28;20196;-78
2021/03/13 13:04:11;;;;;;;5.27;1.00;;;8.00;99.90;;;;;;5047479;28;20228;-79
2021/03/13 13:06:38;;;;;;;2.47;0.60;;;7.80;99.90;;;;;;5052298;28;20276;-79
2021/03/13 13:09:05;;;;;;;3.23;0.53;;;7.90;99.90;;;;;;5049110;28;20223;-79
2021/03/13 13:11:32;;;;;;;2.10;0.40;;;7.70;99.90;;;;;;5039540;28;20679;-79
2021/03/13 13:13:59;;;;;;;2.27;0.37;;;7.80;99.90;;;;;;5052485;28;20214;-79
2021/03/13 13:16:25;;;;;;;1.10;0.47;;;7.90;99.90;;;;;;5053150;28;20250;-79
2021/03/13 13:18:52;;;;;;;2.37;0.67;;;8.30;99.90;;;;;;5046946;28;20552;-79
2021/03/13 13:21:18;;;;;;;2.00;0.77;;;8.90;99.90;;;;;;5058729;28;20273;-79
2021/03/13 13:23:45;;;;;;;1.47;0.70;;;9.50;99.90;;;;;;5041901;28;20731;-79
2021/03/13 13:26:11;;;;;;;3.70;1.00;;;10.60;99.90;;;;;;5046202;28;20231;-79